sensor_id;sensor_type;location;lat;lon;timestamp;P1;durP1;ratioP1;P2;durP2;ratioP2
37483;SDS011;23337;52.212;9.926;2023-11-21T00:02:04;17.10;;;10.27;;
37483;SDS011;23337;52.212;9.926;2023-11-21T00:04:30;15.27;;;10.20;;
37483;SDS011;23337;52.212;9.926;2023-11-21T00:06:56;15.63;;;8.63;;
37483;SDS011;23337;52.212;9.926;2023-11-21T00:09:22;14.43;;;10.33;;
37483;SDS011;23337;52.212;9.926;2023-11-21T00:11:48;20.37;;;10.33;;
37483;SDS011;23337;52.212;9.926;2023-11-21T00:14:14;21.47;;;10.13;;
37483;SDS011;23337;52.212;9.926;2023-11-21T00:16:40;11.70;;;9.57;;
37483;SDS011;23337;52.212;9.926;2023-11-21T00:19:06;13.93;;;9.47;;
37483;SDS011;23337;52.212;9.926;2023-11-21T00:21:32;17.53;;;9.97;;
37483;SDS011;23337;52.212;9.926;2023-11-21T00:23:58;16.43;;;10.53;;
37483;SDS011;23337;52.212;9.926;2023-11-21T00:26:24;17.80;;;11.67;;
37483;SDS011;23337;52.212;9.926;2023-11-21T00:28:50;19.67;;;10.93;;
37483;SDS011;23337;52.212;9.926;2023-11-21T00:31:16;17.53;;;10.03;;
37483;SDS011;23337;52.212;9.926;2023-11-21T00:33:42;19.37;;;11.93;;
37483;SDS011;23337;52.212;9.926;2023-11-21T00:36:08;19.33;;;10.30;;
37483;SDS011;23337;52.212;9.926;2023-11-21T00:38:37;21.43;;;11.07;;
37483;SDS011;23337;52.212;9.926;2023-11-21T00:41:06;18.83;;;11.40;;
37483;SDS011;23337;52.212;9.926;2023-11-21T00:43:32;17.20;;;10.40;;
37483;SDS011;23337;52.212;9.926;2023-11-21T00:45:58;19.90;;;11.17;;
37483;SDS011;23337;52.212;9.926;2023-11-21T00:48:24;16.77;;;10.97;;
37483;SDS011;23337;52.212;9.926;2023-11-21T00:50:50;18.93;;;10.70;;
37483;SDS011;23337;52.212;9.926;2023-11-21T00:53:16;19.50;;;11.40;;
37483;SDS011;23337;52.212;9.926;2023-11-21T00:55:42;22.93;;;11.70;;
37483;SDS011;23337;52.212;9.926;2023-11-21T00:58:08;16.37;;;11.37;;
37483;SDS011;23337;52.212;9.926;2023-11-21T01:00:35;17.67;;;11.87;;
37483;SDS011;23337;52.212;9.926;2023-11-21T01:03:04;16.77;;;11.30;;
37483;SDS011;23337;52.212;9.926;2023-11-21T01:05:30;17.50;;;11.83;;
37483;SDS011;23337;52.212;9.926;2023-11-21T01:07:56;20.03;;;12.60;;
37483;SDS011;23337;52.212;9.926;2023-11-21T01:10:22;17.93;;;12.23;;
37483;SDS011;23337;52.212;9.926;2023-11-21T01:12:48;20.97;;;13.30;;
37483;SDS011;23337;52.212;9.926;2023-11-21T01:15:14;17.80;;;11.93;;
37483;SDS011;23337;52.212;9.926;2023-11-21T01:17:40;17.87;;;12.60;;
37483;SDS011;23337;52.212;9.926;2023-11-21T01:20:06;21.17;;;12.47;;
37483;SDS011;23337;52.212;9.926;2023-11-21T01:22:37;18.13;;;13.17;;
37483;SDS011;23337;52.212;9.926;2023-11-21T01:25:04;23.27;;;12.53;;
37483;SDS011;23337;52.212;9.926;2023-11-21T01:27:32;17.43;;;12.73;;
37483;SDS011;23337;52.212;9.926;2023-11-21T01:29:59;19.87;;;12.63;;
37483;SDS011;23337;52.212;9.926;2023-11-21T01:32:25;21.03;;;12.70;;
37483;SDS011;23337;52.212;9.926;2023-11-21T01:34:50;19.53;;;12.13;;
37483;SDS011;23337;52.212;9.926;2023-11-21T01:37:16;22.10;;;13.13;;
37483;SDS011;23337;52.212;9.926;2023-11-21T01:39:45;17.03;;;11.03;;
37483;SDS011;23337;52.212;9.926;2023-11-21T01:42:12;23.87;;;12.97;;
37483;SDS011;23337;52.212;9.926;2023-11-21T01:44:38;17.80;;;12.93;;
37483;SDS011;23337;52.212;9.926;2023-11-21T01:47:05;15.17;;;12.20;;
37483;SDS011;23337;52.212;9.926;2023-11-21T01:49:34;21.97;;;13.50;;
37483;SDS011;23337;52.212;9.926;2023-11-21T01:52:01;27.03;;;15.37;;
37483;SDS011;23337;52.212;9.926;2023-11-21T01:54:27;20.03;;;12.97;;
37483;SDS011;23337;52.212;9.926;2023-11-21T01:56:56;19.77;;;13.63;;
37483;SDS011;23337;52.212;9.926;2023-11-21T01:59:27;21.67;;;13.57;;
37483;SDS011;23337;52.212;9.926;2023-11-21T02:01:56;22.37;;;14.37;;
37483;SDS011;23337;52.212;9.926;2023-11-21T02:04:22;22.27;;;14.23;;
37483;SDS011;23337;52.212;9.926;2023-11-21T02:06:48;22.80;;;13.90;;
37483;SDS011;23337;52.212;9.926;2023-11-21T02:09:15;20.13;;;13.13;;
37483;SDS011;23337;52.212;9.926;2023-11-21T02:11:42;18.90;;;13.60;;
37483;SDS011;23337;52.212;9.926;2023-11-21T02:14:09;22.63;;;12.33;;
37483;SDS011;23337;52.212;9.926;2023-11-21T02:16:35;24.17;;;13.57;;
37483;SDS011;23337;52.212;9.926;2023-11-21T02:19:03;18.97;;;12.77;;
37483;SDS011;23337;52.212;9.926;2023-11-21T02:21:31;24.93;;;13.83;;
37483;SDS011;23337;52.212;9.926;2023-11-21T02:23:58;28.17;;;14.27;;
37483;SDS011;23337;52.212;9.926;2023-11-21T02:26:25;23.10;;;13.23;;
37483;SDS011;23337;52.212;9.926;2023-11-21T02:28:51;18.53;;;13.93;;
37483;SDS011;23337;52.212;9.926;2023-11-21T02:31:18;19.90;;;13.27;;
37483;SDS011;23337;52.212;9.926;2023-11-21T02:33:44;19.30;;;13.67;;
37483;SDS011;23337;52.212;9.926;2023-11-21T02:36:10;22.97;;;14.03;;
37483;SDS011;23337;52.212;9.926;2023-11-21T02:38:36;24.63;;;14.53;;
37483;SDS011;23337;52.212;9.926;2023-11-21T02:41:02;26.83;;;16.43;;
37483;SDS011;23337;52.212;9.926;2023-11-21T02:43:29;22.10;;;13.90;;
37483;SDS011;23337;52.212;9.926;2023-11-21T02:45:55;23.17;;;13.53;;
37483;SDS011;23337;52.212;9.926;2023-11-21T02:48:21;24.10;;;14.97;;
37483;SDS011;23337;52.212;9.926;2023-11-21T02:50:50;20.53;;;14.30;;
37483;SDS011;23337;52.212;9.926;2023-11-21T02:53:18;26.70;;;14.17;;
37483;SDS011;23337;52.212;9.926;2023-11-21T02:55:44;19.20;;;13.23;;
37483;SDS011;23337;52.212;9.926;2023-11-21T02:58:10;25.20;;;13.33;;
37483;SDS011;23337;52.212;9.926;2023-11-21T03:00:36;24.20;;;15.00;;
37483;SDS011;23337;52.212;9.926;2023-11-21T03:03:01;22.17;;;14.83;;
37483;SDS011;23337;52.212;9.926;2023-11-21T03:05:29;26.10;;;14.70;;
37483;SDS011;23337;52.212;9.926;2023-11-21T03:07:55;25.67;;;14.20;;
37483;SDS011;23337;52.212;9.926;2023-11-21T03:10:20;22.53;;;14.13;;
37483;SDS011;23337;52.212;9.926;2023-11-21T03:12:46;27.57;;;14.87;;
37483;SDS011;23337;52.212;9.926;2023-11-21T03:15:12;28.83;;;16.13;;
37483;SDS011;23337;52.212;9.926;2023-11-21T03:17:39;28.83;;;16.27;;
37483;SDS011;23337;52.212;9.926;2023-11-21T03:20:05;23.33;;;14.97;;
37483;SDS011;23337;52.212;9.926;2023-11-21T03:22:35;26.23;;;17.23;;
37483;SDS011;23337;52.212;9.926;2023-11-21T03:25:01;28.43;;;17.07;;
37483;SDS011;23337;52.212;9.926;2023-11-21T03:27:27;28.00;;;15.93;;
37483;SDS011;23337;52.212;9.926;2023-11-21T03:29:53;21.83;;;15.23;;
37483;SDS011;23337;52.212;9.926;2023-11-21T03:32:19;22.93;;;15.70;;
37483;SDS011;23337;52.212;9.926;2023-11-21T03:34:55;25.70;;;16.47;;
37483;SDS011;23337;52.212;9.926;2023-11-21T03:37:21;23.73;;;16.27;;
37483;SDS011;23337;52.212;9.926;2023-11-21T03:39:47;23.23;;;15.37;;
37483;SDS011;23337;52.212;9.926;2023-11-21T03:42:13;31.93;;;16.50;;
37483;SDS011;23337;52.212;9.926;2023-11-21T03:44:39;28.17;;;17.10;;
37483;SDS011;23337;52.212;9.926;2023-11-21T03:47:05;27.37;;;17.27;;
37483;SDS011;23337;52.212;9.926;2023-11-21T03:49:31;31.77;;;16.87;;
37483;SDS011;23337;52.212;9.926;2023-11-21T03:51:57;29.57;;;16.80;;
37483;SDS011;23337;52.212;9.926;2023-11-21T03:54:23;25.23;;;17.10;;
37483;SDS011;23337;52.212;9.926;2023-11-21T03:56:49;29.13;;;16.93;;
37483;SDS011;23337;52.212;9.926;2023-11-21T03:59:15;25.37;;;16.77;;
37483;SDS011;23337;52.212;9.926;2023-11-21T04:01:41;27.07;;;17.20;;
37483;SDS011;23337;52.212;9.926;2023-11-21T04:04:07;28.57;;;17.13;;
37483;SDS011;23337;52.212;9.926;2023-11-21T04:06:32;29.30;;;16.93;;
37483;SDS011;23337;52.212;9.926;2023-11-21T04:08:58;23.67;;;15.77;;
37483;SDS011;23337;52.212;9.926;2023-11-21T04:11:24;28.50;;;16.00;;
37483;SDS011;23337;52.212;9.926;2023-11-21T04:13:50;28.93;;;16.87;;
37483;SDS011;23337;52.212;9.926;2023-11-21T04:16:16;25.87;;;17.17;;
37483;SDS011;23337;52.212;9.926;2023-11-21T04:18:43;31.87;;;16.70;;
37483;SDS011;23337;52.212;9.926;2023-11-21T04:21:09;32.57;;;17.40;;
37483;SDS011;23337;52.212;9.926;2023-11-21T04:23:35;25.07;;;16.13;;
37483;SDS011;23337;52.212;9.926;2023-11-21T04:26:01;30.87;;;18.23;;
37483;SDS011;23337;52.212;9.926;2023-11-21T04:28:27;30.27;;;17.17;;
37483;SDS011;23337;52.212;9.926;2023-11-21T04:30:53;26.43;;;16.63;;
37483;SDS011;23337;52.212;9.926;2023-11-21T04:33:20;27.07;;;16.40;;
37483;SDS011;23337;52.212;9.926;2023-11-21T04:35:47;26.80;;;16.13;;
37483;SDS011;23337;52.212;9.926;2023-11-21T04:38:13;27.47;;;17.27;;
37483;SDS011;23337;52.212;9.926;2023-11-21T04:40:39;23.73;;;16.63;;
37483;SDS011;23337;52.212;9.926;2023-11-21T04:43:05;28.40;;;17.07;;
37483;SDS011;23337;52.212;9.926;2023-11-21T04:45:31;28.93;;;17.30;;
37483;SDS011;23337;52.212;9.926;2023-11-21T04:47:57;33.33;;;17.73;;
37483;SDS011;23337;52.212;9.926;2023-11-21T04:50:23;26.63;;;18.07;;
37483;SDS011;23337;52.212;9.926;2023-11-21T04:52:51;32.63;;;17.37;;
37483;SDS011;23337;52.212;9.926;2023-11-21T04:55:17;27.67;;;17.33;;
37483;SDS011;23337;52.212;9.926;2023-11-21T04:57:43;30.57;;;17.83;;
37483;SDS011;23337;52.212;9.926;2023-11-21T05:00:09;32.97;;;18.07;;
37483;SDS011;23337;52.212;9.926;2023-11-21T05:02:35;32.27;;;19.43;;
37483;SDS011;23337;52.212;9.926;2023-11-21T05:05:03;31.87;;;20.47;;
37483;SDS011;23337;52.212;9.926;2023-11-21T05:07:30;33.23;;;19.00;;
37483;SDS011;23337;52.212;9.926;2023-11-21T05:09:56;37.13;;;19.37;;
37483;SDS011;23337;52.212;9.926;2023-11-21T05:12:24;32.80;;;19.43;;
37483;SDS011;23337;52.212;9.926;2023-11-21T05:14:50;33.40;;;19.80;;
37483;SDS011;23337;52.212;9.926;2023-11-21T05:17:16;37.80;;;18.93;;
37483;SDS011;23337;52.212;9.926;2023-11-21T05:19:42;36.37;;;20.93;;
37483;SDS011;23337;52.212;9.926;2023-11-21T05:22:10;34.80;;;18.43;;
37483;SDS011;23337;52.212;9.926;2023-11-21T05:24:37;33.80;;;19.80;;
37483;SDS011;23337;52.212;9.926;2023-11-21T05:27:04;35.60;;;20.13;;
37483;SDS011;23337;52.212;9.926;2023-11-21T05:29:30;45.93;;;23.07;;
37483;SDS011;23337;52.212;9.926;2023-11-21T05:31:56;39.03;;;19.30;;
37483;SDS011;23337;52.212;9.926;2023-11-21T05:34:22;35.00;;;20.03;;
37483;SDS011;23337;52.212;9.926;2023-11-21T05:36:49;33.43;;;19.97;;
37483;SDS011;23337;52.212;9.926;2023-11-21T05:39:15;32.23;;;19.43;;
37483;SDS011;23337;52.212;9.926;2023-11-21T05:41:42;39.50;;;20.07;;
37483;SDS011;23337;52.212;9.926;2023-11-21T05:44:08;38.90;;;22.03;;
37483;SDS011;23337;52.212;9.926;2023-11-21T05:46:34;35.70;;;19.77;;
37483;SDS011;23337;52.212;9.926;2023-11-21T05:49:00;39.17;;;20.63;;
37483;SDS011;23337;52.212;9.926;2023-11-21T05:51:26;44.20;;;22.23;;
37483;SDS011;23337;52.212;9.926;2023-11-21T05:53:52;38.67;;;20.43;;
37483;SDS011;23337;52.212;9.926;2023-11-21T05:56:18;34.93;;;20.83;;
37483;SDS011;23337;52.212;9.926;2023-11-21T05:58:44;32.90;;;19.83;;
37483;SDS011;23337;52.212;9.926;2023-11-21T06:01:10;38.87;;;19.53;;
37483;SDS011;23337;52.212;9.926;2023-11-21T06:03:38;30.73;;;18.70;;
37483;SDS011;23337;52.212;9.926;2023-11-21T06:06:04;37.67;;;20.10;;
37483;SDS011;23337;52.212;9.926;2023-11-21T06:08:30;35.47;;;19.23;;
37483;SDS011;23337;52.212;9.926;2023-11-21T06:10:56;32.87;;;18.30;;
37483;SDS011;23337;52.212;9.926;2023-11-21T06:13:22;35.67;;;19.17;;
37483;SDS011;23337;52.212;9.926;2023-11-21T06:15:50;28.87;;;18.03;;
37483;SDS011;23337;52.212;9.926;2023-11-21T06:18:16;37.13;;;18.93;;
37483;SDS011;23337;52.212;9.926;2023-11-21T06:20:44;30.70;;;17.10;;
37483;SDS011;23337;52.212;9.926;2023-11-21T06:23:10;28.43;;;18.50;;
37483;SDS011;23337;52.212;9.926;2023-11-21T06:25:36;27.90;;;17.17;;
37483;SDS011;23337;52.212;9.926;2023-11-21T06:28:02;32.10;;;18.37;;
37483;SDS011;23337;52.212;9.926;2023-11-21T06:30:28;30.13;;;18.70;;
37483;SDS011;23337;52.212;9.926;2023-11-21T06:32:54;30.70;;;18.50;;
37483;SDS011;23337;52.212;9.926;2023-11-21T06:35:21;27.20;;;17.47;;
37483;SDS011;23337;52.212;9.926;2023-11-21T06:37:47;28.87;;;17.50;;
37483;SDS011;23337;52.212;9.926;2023-11-21T06:40:13;24.50;;;17.27;;
37483;SDS011;23337;52.212;9.926;2023-11-21T06:42:43;28.10;;;17.17;;
37483;SDS011;23337;52.212;9.926;2023-11-21T06:45:10;22.63;;;15.80;;
37483;SDS011;23337;52.212;9.926;2023-11-21T06:47:36;27.07;;;16.27;;
37483;SDS011;23337;52.212;9.926;2023-11-21T06:50:03;30.20;;;15.93;;
37483;SDS011;23337;52.212;9.926;2023-11-21T06:52:29;26.23;;;15.77;;
37483;SDS011;23337;52.212;9.926;2023-11-21T06:54:55;30.13;;;16.60;;
37483;SDS011;23337;52.212;9.926;2023-11-21T06:57:22;26.53;;;16.37;;
37483;SDS011;23337;52.212;9.926;2023-11-21T06:59:48;24.07;;;16.67;;
37483;SDS011;23337;52.212;9.926;2023-11-21T07:02:17;23.70;;;16.63;;
37483;SDS011;23337;52.212;9.926;2023-11-21T07:04:44;24.30;;;16.37;;
37483;SDS011;23337;52.212;9.926;2023-11-21T07:07:11;24.10;;;16.33;;
37483;SDS011;23337;52.212;9.926;2023-11-21T07:09:37;23.87;;;16.03;;
37483;SDS011;23337;52.212;9.926;2023-11-21T07:12:03;25.83;;;16.03;;
37483;SDS011;23337;52.212;9.926;2023-11-21T07:14:32;27.03;;;15.47;;
37483;SDS011;23337;52.212;9.926;2023-11-21T07:16:58;24.00;;;16.00;;
37483;SDS011;23337;52.212;9.926;2023-11-21T07:19:24;26.67;;;17.60;;
37483;SDS011;23337;52.212;9.926;2023-11-21T07:21:50;24.43;;;14.97;;
37483;SDS011;23337;52.212;9.926;2023-11-21T07:24:16;16.30;;;11.37;;
37483;SDS011;23337;52.212;9.926;2023-11-21T07:26:42;9.80;;;6.23;;
37483;SDS011;23337;52.212;9.926;2023-11-21T07:29:08;5.50;;;3.63;;
37483;SDS011;23337;52.212;9.926;2023-11-21T07:31:36;3.13;;;2.57;;
37483;SDS011;23337;52.212;9.926;2023-11-21T07:34:03;4.73;;;2.43;;
37483;SDS011;23337;52.212;9.926;2023-11-21T07:36:29;4.57;;;2.73;;
37483;SDS011;23337;52.212;9.926;2023-11-21T07:38:55;4.70;;;2.80;;
37483;SDS011;23337;52.212;9.926;2023-11-21T07:41:21;3.53;;;2.87;;
37483;SDS011;23337;52.212;9.926;2023-11-21T07:43:47;3.20;;;2.80;;
37483;SDS011;23337;52.212;9.926;2023-11-21T07:46:13;5.20;;;3.03;;
37483;SDS011;23337;52.212;9.926;2023-11-21T07:48:40;3.37;;;3.00;;
37483;SDS011;23337;52.212;9.926;2023-11-21T07:51:07;4.03;;;2.37;;
37483;SDS011;23337;52.212;9.926;2023-11-21T07:53:33;3.77;;;2.73;;
37483;SDS011;23337;52.212;9.926;2023-11-21T07:56:03;3.50;;;2.73;;
37483;SDS011;23337;52.212;9.926;2023-11-21T07:58:29;5.30;;;2.60;;
37483;SDS011;23337;52.212;9.926;2023-11-21T08:00:55;3.47;;;2.90;;
37483;SDS011;23337;52.212;9.926;2023-11-21T08:03:21;6.17;;;3.27;;
37483;SDS011;23337;52.212;9.926;2023-11-21T08:05:47;6.53;;;3.50;;
37483;SDS011;23337;52.212;9.926;2023-11-21T08:08:13;6.93;;;5.67;;
37483;SDS011;23337;52.212;9.926;2023-11-21T08:10:40;15.50;;;8.97;;
37483;SDS011;23337;52.212;9.926;2023-11-21T08:13:07;9.50;;;6.87;;
37483;SDS011;23337;52.212;9.926;2023-11-21T08:15:34;6.10;;;5.07;;
37483;SDS011;23337;52.212;9.926;2023-11-21T08:18:02;5.33;;;4.83;;
37483;SDS011;23337;52.212;9.926;2023-11-21T08:20:28;4.93;;;4.43;;
37483;SDS011;23337;52.212;9.926;2023-11-21T08:22:54;4.33;;;3.93;;
37483;SDS011;23337;52.212;9.926;2023-11-21T08:25:21;7.67;;;4.93;;
37483;SDS011;23337;52.212;9.926;2023-11-21T08:27:47;3.87;;;3.43;;
37483;SDS011;23337;52.212;9.926;2023-11-21T08:30:14;6.87;;;4.50;;
37483;SDS011;23337;52.212;9.926;2023-11-21T08:32:41;5.23;;;4.37;;
37483;SDS011;23337;52.212;9.926;2023-11-21T08:35:08;8.10;;;6.17;;
37483;SDS011;23337;52.212;9.926;2023-11-21T08:37:34;8.63;;;6.90;;
37483;SDS011;23337;52.212;9.926;2023-11-21T08:40:04;9.37;;;6.27;;
37483;SDS011;23337;52.212;9.926;2023-11-21T08:42:34;6.57;;;5.43;;
37483;SDS011;23337;52.212;9.926;2023-11-21T08:45:00;9.40;;;6.90;;
37483;SDS011;23337;52.212;9.926;2023-11-21T08:47:26;9.80;;;6.67;;
37483;SDS011;23337;52.212;9.926;2023-11-21T08:49:52;8.77;;;7.23;;
37483;SDS011;23337;52.212;9.926;2023-11-21T08:52:21;11.57;;;7.07;;
37483;SDS011;23337;52.212;9.926;2023-11-21T08:54:47;7.63;;;6.40;;
37483;SDS011;23337;52.212;9.926;2023-11-21T08:57:13;8.73;;;6.90;;
37483;SDS011;23337;52.212;9.926;2023-11-21T08:59:40;9.10;;;6.10;;
37483;SDS011;23337;52.212;9.926;2023-11-21T09:02:06;15.53;;;10.93;;
37483;SDS011;23337;52.212;9.926;2023-11-21T09:04:33;19.70;;;12.07;;
37483;SDS011;23337;52.212;9.926;2023-11-21T09:06:58;11.13;;;8.17;;
37483;SDS011;23337;52.212;9.926;2023-11-21T09:09:25;12.23;;;8.20;;
37483;SDS011;23337;52.212;9.926;2023-11-21T09:11:51;7.10;;;5.90;;
37483;SDS011;23337;52.212;9.926;2023-11-21T09:14:17;8.73;;;6.90;;
37483;SDS011;23337;52.212;9.926;2023-11-21T09:16:43;8.80;;;7.10;;
37483;SDS011;23337;52.212;9.926;2023-11-21T09:19:08;8.70;;;7.13;;
37483;SDS011;23337;52.212;9.926;2023-11-21T09:21:34;8.30;;;7.17;;
37483;SDS011;23337;52.212;9.926;2023-11-21T09:24:00;10.07;;;7.60;;
37483;SDS011;23337;52.212;9.926;2023-11-21T09:26:27;9.93;;;7.00;;
37483;SDS011;23337;52.212;9.926;2023-11-21T09:28:55;10.43;;;7.93;;
37483;SDS011;23337;52.212;9.926;2023-11-21T09:31:21;9.10;;;7.30;;
37483;SDS011;23337;52.212;9.926;2023-11-21T09:33:48;13.30;;;8.40;;
37483;SDS011;23337;52.212;9.926;2023-11-21T09:36:14;10.67;;;7.90;;
37483;SDS011;23337;52.212;9.926;2023-11-21T09:38:41;11.40;;;7.83;;
37483;SDS011;23337;52.212;9.926;2023-11-21T09:41:09;11.57;;;9.07;;
37483;SDS011;23337;52.212;9.926;2023-11-21T09:43:37;8.87;;;7.33;;
37483;SDS011;23337;52.212;9.926;2023-11-21T09:46:04;8.97;;;7.13;;
37483;SDS011;23337;52.212;9.926;2023-11-21T09:48:35;9.97;;;7.33;;
37483;SDS011;23337;52.212;9.926;2023-11-21T09:51:02;8.90;;;6.97;;
37483;SDS011;23337;52.212;9.926;2023-11-21T09:53:28;9.90;;;7.60;;
37483;SDS011;23337;52.212;9.926;2023-11-21T09:55:55;9.30;;;6.97;;
37483;SDS011;23337;52.212;9.926;2023-11-21T09:58:21;9.90;;;7.33;;
37483;SDS011;23337;52.212;9.926;2023-11-21T10:00:55;12.17;;;8.23;;
37483;SDS011;23337;52.212;9.926;2023-11-21T10:03:23;9.83;;;8.27;;
37483;SDS011;23337;52.212;9.926;2023-11-21T10:05:50;10.73;;;8.17;;
37483;SDS011;23337;52.212;9.926;2023-11-21T10:08:17;10.80;;;8.33;;
37483;SDS011;23337;52.212;9.926;2023-11-21T10:10:45;8.97;;;7.03;;
37483;SDS011;23337;52.212;9.926;2023-11-21T10:13:14;13.50;;;8.77;;
37483;SDS011;23337;52.212;9.926;2023-11-21T10:15:41;12.60;;;8.83;;
37483;SDS011;23337;52.212;9.926;2023-11-21T10:18:13;8.80;;;6.60;;
37483;SDS011;23337;52.212;9.926;2023-11-21T10:20:40;7.60;;;6.63;;
37483;SDS011;23337;52.212;9.926;2023-11-21T10:23:06;7.10;;;5.77;;
37483;SDS011;23337;52.212;9.926;2023-11-21T10:25:36;7.63;;;6.03;;
37483;SDS011;23337;52.212;9.926;2023-11-21T10:28:02;6.70;;;5.60;;
37483;SDS011;23337;52.212;9.926;2023-11-21T10:30:32;6.50;;;5.47;;
37483;SDS011;23337;52.212;9.926;2023-11-21T10:32:59;7.13;;;6.00;;
37483;SDS011;23337;52.212;9.926;2023-11-21T10:35:38;6.73;;;5.47;;
37483;SDS011;23337;52.212;9.926;2023-11-21T10:38:05;6.77;;;5.70;;
37483;SDS011;23337;52.212;9.926;2023-11-21T10:40:30;7.07;;;6.03;;
37483;SDS011;23337;52.212;9.926;2023-11-21T10:43:05;8.37;;;6.40;;
37483;SDS011;23337;52.212;9.926;2023-11-21T10:45:32;6.57;;;5.03;;
37483;SDS011;23337;52.212;9.926;2023-11-21T10:47:58;7.53;;;5.77;;
37483;SDS011;23337;52.212;9.926;2023-11-21T10:50:24;6.33;;;5.43;;
37483;SDS011;23337;52.212;9.926;2023-11-21T10:52:51;5.43;;;4.93;;
37483;SDS011;23337;52.212;9.926;2023-11-21T10:55:17;7.10;;;5.80;;
37483;SDS011;23337;52.212;9.926;2023-11-21T10:57:44;7.07;;;5.97;;
37483;SDS011;23337;52.212;9.926;2023-11-21T11:00:13;6.20;;;5.57;;
37483;SDS011;23337;52.212;9.926;2023-11-21T11:02:39;7.90;;;5.47;;
37483;SDS011;23337;52.212;9.926;2023-11-21T11:05:05;6.40;;;4.93;;
37483;SDS011;23337;52.212;9.926;2023-11-21T11:07:36;6.60;;;5.37;;
37483;SDS011;23337;52.212;9.926;2023-11-21T11:10:03;5.97;;;5.10;;
37483;SDS011;23337;52.212;9.926;2023-11-21T11:12:29;6.40;;;5.30;;
37483;SDS011;23337;52.212;9.926;2023-11-21T11:14:55;8.60;;;6.27;;
37483;SDS011;23337;52.212;9.926;2023-11-21T11:17:21;7.90;;;6.03;;
37483;SDS011;23337;52.212;9.926;2023-11-21T11:19:48;7.97;;;6.67;;
37483;SDS011;23337;52.212;9.926;2023-11-21T11:27:30;9.57;;;6.33;;
37483;SDS011;23337;52.212;9.926;2023-11-21T11:30:14;11.83;;;8.90;;
37483;SDS011;23337;52.212;9.926;2023-11-21T11:35:32;8.20;;;6.63;;
37483;SDS011;23337;52.212;9.926;2023-11-21T11:37:59;6.17;;;5.47;;
37483;SDS011;23337;52.212;9.926;2023-11-21T11:40:38;5.60;;;4.83;;
37483;SDS011;23337;52.212;9.926;2023-11-21T11:43:05;5.90;;;5.30;;
37483;SDS011;23337;52.212;9.926;2023-11-21T11:45:34;6.17;;;5.03;;
37483;SDS011;23337;52.212;9.926;2023-11-21T11:48:01;5.73;;;5.07;;
37483;SDS011;23337;52.212;9.926;2023-11-21T11:50:27;6.77;;;5.03;;
37483;SDS011;23337;52.212;9.926;2023-11-21T11:52:53;6.73;;;5.00;;
37483;SDS011;23337;52.212;9.926;2023-11-21T11:55:22;7.43;;;5.37;;
37483;SDS011;23337;52.212;9.926;2023-11-21T11:57:49;5.50;;;4.93;;
37483;SDS011;23337;52.212;9.926;2023-11-21T12:00:16;7.00;;;5.40;;
37483;SDS011;23337;52.212;9.926;2023-11-21T12:02:50;6.73;;;5.67;;
37483;SDS011;23337;52.212;9.926;2023-11-21T12:05:19;8.10;;;6.60;;
37483;SDS011;23337;52.212;9.926;2023-11-21T12:10:17;7.60;;;6.47;;
37483;SDS011;23337;52.212;9.926;2023-11-21T12:12:50;6.07;;;5.13;;
37483;SDS011;23337;52.212;9.926;2023-11-21T12:15:17;6.43;;;5.23;;
37483;SDS011;23337;52.212;9.926;2023-11-21T12:17:44;5.90;;;5.30;;
37483;SDS011;23337;52.212;9.926;2023-11-21T12:20:11;5.80;;;5.20;;
37483;SDS011;23337;52.212;9.926;2023-11-21T12:22:43;6.20;;;4.67;;
37483;SDS011;23337;52.212;9.926;2023-11-21T12:25:09;5.53;;;4.80;;
37483;SDS011;23337;52.212;9.926;2023-11-21T12:27:40;6.70;;;5.20;;
37483;SDS011;23337;52.212;9.926;2023-11-21T12:30:07;5.50;;;4.93;;
37483;SDS011;23337;52.212;9.926;2023-11-21T12:32:38;5.17;;;4.63;;
37483;SDS011;23337;52.212;9.926;2023-11-21T12:35:04;5.87;;;4.80;;
37483;SDS011;23337;52.212;9.926;2023-11-21T12:37:31;7.33;;;5.40;;
37483;SDS011;23337;52.212;9.926;2023-11-21T12:39:57;6.93;;;5.70;;
37483;SDS011;23337;52.212;9.926;2023-11-21T12:42:23;5.50;;;4.93;;
37483;SDS011;23337;52.212;9.926;2023-11-21T12:45:06;6.13;;;5.53;;
37483;SDS011;23337;52.212;9.926;2023-11-21T12:47:34;6.63;;;5.43;;
37483;SDS011;23337;52.212;9.926;2023-11-21T12:50:01;5.33;;;4.83;;
37483;SDS011;23337;52.212;9.926;2023-11-21T12:52:28;5.83;;;4.03;;
37483;SDS011;23337;52.212;9.926;2023-11-21T12:54:54;5.40;;;4.90;;
37483;SDS011;23337;52.212;9.926;2023-11-21T12:57:21;5.20;;;4.80;;
37483;SDS011;23337;52.212;9.926;2023-11-21T12:59:53;6.57;;;4.70;;
37483;SDS011;23337;52.212;9.926;2023-11-21T13:02:22;5.27;;;4.73;;
37483;SDS011;23337;52.212;9.926;2023-11-21T13:04:53;5.47;;;4.60;;
37483;SDS011;23337;52.212;9.926;2023-11-21T13:07:19;7.50;;;5.43;;
37483;SDS011;23337;52.212;9.926;2023-11-21T13:09:47;5.77;;;5.17;;
37483;SDS011;23337;52.212;9.926;2023-11-21T13:12:13;6.27;;;4.70;;
37483;SDS011;23337;52.212;9.926;2023-11-21T13:14:43;7.50;;;5.00;;
37483;SDS011;23337;52.212;9.926;2023-11-21T13:17:08;5.93;;;5.03;;
37483;SDS011;23337;52.212;9.926;2023-11-21T13:19:35;5.23;;;4.73;;
37483;SDS011;23337;52.212;9.926;2023-11-21T13:22:01;5.30;;;4.53;;
37483;SDS011;23337;52.212;9.926;2023-11-21T13:24:29;4.57;;;3.83;;
37483;SDS011;23337;52.212;9.926;2023-11-21T13:26:55;5.20;;;4.00;;
37483;SDS011;23337;52.212;9.926;2023-11-21T13:29:22;3.70;;;3.30;;
37483;SDS011;23337;52.212;9.926;2023-11-21T13:31:50;3.23;;;2.93;;
37483;SDS011;23337;52.212;9.926;2023-11-21T13:34:18;4.10;;;3.43;;
37483;SDS011;23337;52.212;9.926;2023-11-21T13:36:47;4.13;;;3.73;;
37483;SDS011;23337;52.212;9.926;2023-11-21T13:39:13;6.57;;;5.37;;
37483;SDS011;23337;52.212;9.926;2023-11-21T13:41:41;4.90;;;4.13;;
37483;SDS011;23337;52.212;9.926;2023-11-21T13:44:07;6.70;;;4.90;;
37483;SDS011;23337;52.212;9.926;2023-11-21T13:46:51;5.87;;;5.33;;
37483;SDS011;23337;52.212;9.926;2023-11-21T13:49:17;6.40;;;4.60;;
37483;SDS011;23337;52.212;9.926;2023-11-21T13:51:46;5.20;;;4.70;;
37483;SDS011;23337;52.212;9.926;2023-11-21T13:54:15;5.27;;;4.67;;
37483;SDS011;23337;52.212;9.926;2023-11-21T13:56:41;5.03;;;4.50;;
37483;SDS011;23337;52.212;9.926;2023-11-21T13:59:09;5.57;;;4.57;;
37483;SDS011;23337;52.212;9.926;2023-11-21T14:01:45;4.30;;;3.90;;
37483;SDS011;23337;52.212;9.926;2023-11-21T14:04:17;4.53;;;3.80;;
37483;SDS011;23337;52.212;9.926;2023-11-21T14:06:48;4.67;;;4.13;;
37483;SDS011;23337;52.212;9.926;2023-11-21T14:09:16;4.83;;;4.33;;
37483;SDS011;23337;52.212;9.926;2023-11-21T14:11:50;4.40;;;3.90;;
37483;SDS011;23337;52.212;9.926;2023-11-21T14:14:17;4.20;;;3.80;;
37483;SDS011;23337;52.212;9.926;2023-11-21T14:16:43;5.90;;;4.03;;
37483;SDS011;23337;52.212;9.926;2023-11-21T14:19:09;6.37;;;3.90;;
37483;SDS011;23337;52.212;9.926;2023-11-21T14:21:41;3.90;;;2.90;;
37483;SDS011;23337;52.212;9.926;2023-11-21T14:24:13;3.50;;;2.93;;
37483;SDS011;23337;52.212;9.926;2023-11-21T14:26:42;4.20;;;3.57;;
37483;SDS011;23337;52.212;9.926;2023-11-21T14:29:08;3.53;;;2.77;;
37483;SDS011;23337;52.212;9.926;2023-11-21T14:31:37;3.90;;;3.10;;
37483;SDS011;23337;52.212;9.926;2023-11-21T14:34:04;3.97;;;2.70;;
37483;SDS011;23337;52.212;9.926;2023-11-21T14:36:32;6.00;;;3.67;;
37483;SDS011;23337;52.212;9.926;2023-11-21T14:38:58;4.93;;;3.40;;
37483;SDS011;23337;52.212;9.926;2023-11-21T14:41:24;3.67;;;3.00;;
37483;SDS011;23337;52.212;9.926;2023-11-21T14:43:50;5.20;;;3.20;;